METAR AND TAF INFORMATION
METAR FOR UNKL
ADDS - METARS form results

(0551 UTC 25 November 2020)
Data provider http://aviationweather.gov/metar/data/
 
METAR text: UNKL 250530Z 08003MPS 9999 SCT036CB M07/M12 Q1038 R29/190060 NOSIG RMK QFE753
Conditions at: UNKL (KRASNOYARSK , RU) observed 0530 UTC 25 November 2020
Temperature: -7.0°C (19°F)
Dewpoint: -12.0°C (10°F) [RH = 67%]
Pressure (altimeter): 30.65 inches Hg (1038.0 mb)
Winds: from the E (80 degrees) at 7 MPH (6 knots; 3.1 m/s)
Visibility: 6 or more miles (10+ km)
Ceiling: at least 12,000 feet AGL
Clouds: scattered clouds at 3600 feet AGL
Weather: no significant weather observed at this time

METAR text: UNKL 250500Z 08002MPS 9999 SCT036CB M07/M12 Q1038 R29/190060 NOSIG RMK QFE753
Conditions at: UNKL (KRASNOYARSK , RU) observed 0500 UTC 25 November 2020
Temperature: -7.0°C (19°F)
Dewpoint: -12.0°C (10°F) [RH = 67%]
Pressure (altimeter): 30.65 inches Hg (1038.0 mb)
Winds: from the E (80 degrees) at 5 MPH (4 knots; 2.1 m/s)
Visibility: 6 or more miles (10+ km)
Ceiling: at least 12,000 feet AGL
Clouds: scattered clouds at 3600 feet AGL
Weather: no significant weather observed at this time

Forecast for: UNKL (KRASNOYARSK , RU)
Text: TAF UNKL 250443Z 2506/2606 09003MPS 9999 SCT020CB
Forecast period: 0600 UTC 25 November 2020 to 0600 UTC 26 November 2020
Forecast type: FROM: standard forecast or significant change
Winds: from the E (90 degrees) at 7 MPH (6 knots; 3.1 m/s)
Visibility: 6 or more miles (10+ km)
Ceiling: at least 12,000 feet AGL
Clouds: scattered clouds at 2000 feet AGL
Weather: no significant weather forecast for this period
Text: TEMPO 2506/2512 6000 -SHSN BKN016CB
Forecast period: 0600 to 1200 UTC 25 November 2020
Forecast type: TEMPORARY: The following changes expected for less than half the time period
Visibility: 4 miles (6 km)
Ceiling: 1600 feet AGL
Clouds: broken clouds at 1600 feet AGL
Weather: -SHSN  (light snow showers)

 AIRPORT MAP

 RUNWAY INFORMATION

 AIRPORT FREQUENCIES
Type APP Name KRASNOYARS Frequency 127.7 MHZ
Type TWR Name KRASNOYARS Frequency 118.3 MHZ
Type TWR Name KRASNOYARS Frequency 121.9 MHZ

 AIRPORT NEAR NAVIGATION AIDS
Type NDB Name Krasnoyarsk Frequency 334 KHZ
Type NDB Name Staritsa Frequency 430 KHZ
Type NDB Name Krasnoyarsk Frequency 334 KHZ
Type VOR-DME Name Krasnoyarsk Frequency 113200 KHZ



2018 Air Astana Virtual Airline